Port Hedland, Australia
Current Conditions -  °F | °C
As of 5:30 AM on Tuesday 21 Oct 2014 (Local Time) from YPPD Reporting Station
Clear Clear  
Wind Chill: 68°   Ceiling: Unl
Heat Index: 68°   Visibility: 6mi
Dew Point: 57°   Wind: 10mph
Humidity: 68%   Direction: 210°SSW
Pressure: 29.94"   Gusts: NA
Location:  20.31°S, 118.58°E
Report Text: YPPD 202130Z AUTO 21009KT 9999 // NCD 20/14 Q1014
Loading
Personal Weather Stations






























Interactive Weather Map
Tropical Storm Tracking
New forecast layout! Learn more

10-Day Weather Forecast

Advertisements
Track Severe Weather on mobile